Time;durP1;ratioP1;P1;durP2;ratioP2;P2;SDS_P1;SDS_P2;PMS_P1;PMS_P2;Temp;Humidity;BMP_temperature;BMP_pressure;BME280_temperature;BME280_humidity;BME280_pressure;Samples;Min_cycle;Max_cycle;Signal;HPM_P1;HPM_P2
2021/08/27 00:05:31;;;;;;;;;;;;;;;;;;;;;
2021/08/27 00:09:27;;;;;;;;;;;;;;;;;;;;;
2021/08/27 00:34:15;;;;;;;;;;;;;;;;;;;;;
2021/08/27 00:41:41;;;;;;;;;;;;;;;;;;;;;
2021/08/27 00:58:26;;;;;;;11.50;1.88;;;;;;;12.40;90.50;102039.03;5847522;24;20025;-88
2021/08/27 01:05:25;;;;;;;12.52;2.00;;;;;;;12.36;90.09;102031.88;5815652;24;20053;-87
2021/08/27 01:19:42;;;;;;;8.73;1.75;;;;;;;12.26;89.96;102024.53;5979742;23;20027;-85
2021/08/27 01:30:03;;;;;;;12.15;2.17;;;;;;;12.16;90.33;102017.22;5999643;23;20052;-87
2021/08/27 01:33:12;;;;;;;14.07;1.90;;;;;;;12.20;90.47;102019.09;5985819;23;20045;-87
2021/08/27 01:36:23;;;;;;;13.68;2.47;;;;;;;12.19;90.23;102017.28;6010550;23;20008;-82
2021/08/27 01:46:51;;;;;;;10.35;2.05;;;;;;;12.24;89.62;102020.97;6156962;23;20041;-86
2021/08/27 01:50:57;;;;;;;9.75;2.00;;;;;;;12.25;89.74;102020.09;6095067;23;20006;-86
2021/08/27 02:04:50;;;;;;;;;;;;;;;;;;;;;
2021/08/27 02:07:48;;;;;;;8.35;1.80;;;;;;;12.22;89.30;102038.47;5901924;24;20006;-85
2021/08/27 02:14:40;;;;;;;7.70;2.05;;;;;;;12.18;89.63;102039.25;5935552;24;20411;-86
2021/08/27 02:28:39;;;;;;;7.68;1.70;;;;;;;11.96;90.21;102042.16;5911787;24;20082;-85
2021/08/27 02:32:01;;;;;;;8.15;2.05;;;;;;;11.90;90.42;102041.03;5845915;24;20153;-90
2021/08/27 02:35:20;;;;;;;;;;;;;;;;;;;;;
2021/08/27 02:46:10;;;;;;;9.90;2.30;;;;;;;11.66;91.18;102044.69;5846332;24;20026;-85
2021/08/27 02:52:46;;;;;;;9.18;2.17;;;;;;;11.62;91.44;102050.72;5799008;24;20011;-85
2021/08/27 02:56:20;;;;;;;;;;;;;;;;;;;;;
2021/08/27 03:03:25;;;;;;;11.65;2.10;;;;;;;11.67;91.53;102041.22;6035592;23;20026;-86
2021/08/27 03:10:18;;;;;;;6.30;1.60;;;;;;;11.74;90.64;102032.63;5926422;24;20020;-82
2021/08/27 03:13:46;;;;;;;;;;;;;;;;;;;;;
2021/08/27 03:17:41;;;;;;;;;;;;;;;;;;;;;
2021/08/27 03:24:59;;;;;;;;;;;;;;;;;;;;;
2021/08/27 03:32:22;;;;;;;;;;;;;;;;;;;;;
2021/08/27 03:38:55;;;;;;;5.40;1.55;;;;;;;11.76;89.79;102044.16;5982289;24;20364;-86
2021/08/27 03:49:23;;;;;;;;;;;;;;;;;;;;;
2021/08/27 03:53:16;;;;;;;;;;;;;;;;;;;;;
2021/08/27 04:36:20;;;;;;;;;;;;;;;;;;;;;
2021/08/27 04:39:56;;;;;;;8.02;2.13;;;;;;;11.94;91.82;102058.75;5847772;24;20545;-87
2021/08/27 04:43:14;;;;;;;;;;;;;;;;;;;;;
2021/08/27 04:46:58;;;;;;;;;;;;;;;;;;;;;
2021/08/27 04:49:45;;;;;;;10.60;2.10;;;;;;;11.72;92.32;102060.72;5833376;24;20093;-83
2021/08/27 04:57:36;;;;;;;;;;;;;;;;;;;;;
2021/08/27 05:03:50;;;;;;;3.83;1.52;;;;;;;11.64;92.66;102072.78;5842408;24;20110;-84
2021/08/27 05:07:16;;;;;;;8.75;1.67;;;;;;;11.61;92.72;102067.38;5711710;25;20043;-85
2021/08/27 05:25:06;;;;;;;7.65;1.63;;;;;;;11.75;92.89;102068.72;5880902;24;20056;-84
2021/08/27 05:28:32;;;;;;;;;;;;;;;;;;;;;
2021/08/27 05:39:32;;;;;;;;;;;;;;;;;;;;;
2021/08/27 06:36:31;;;;;;;9.85;1.63;;;;;;;14.67;85.67;102093.84;5929902;24;20044;-82
2021/08/27 06:39:17;;;;;;;7.13;1.70;;;;;;;14.85;86.02;102093.28;5961326;23;20484;-85
2021/08/27 06:41:59;;;;;;;9.70;2.00;;;;;;;15.12;84.28;102092.03;6118143;23;20372;-81
2021/08/27 06:44:27;;;;;;;10.85;2.17;;;;;;;15.43;83.55;102093.44;6125510;23;20088;-81
2021/08/27 06:47:11;;;;;;;10.65;2.20;;;;;;;15.73;82.30;102085.94;6125698;23;20013;-83
2021/08/27 06:53:08;;;;;;;10.80;2.17;;;;;;;16.17;79.10;102083.09;6116483;23;20018;-85
2021/08/27 06:56:07;;;;;;;9.93;1.80;;;;;;;16.26;78.96;102093.81;6115669;23;20021;-86
2021/08/27 06:58:51;;;;;;;11.95;1.98;;;;;;;16.41;77.94;102084.25;6119246;23;20014;-84
2021/08/27 07:05:20;;;;;;;7.22;1.70;;;;;;;16.55;79.27;102101.28;5977695;24;20032;-86
2021/08/27 07:12:37;;;;;;;8.40;2.00;;;;;;;16.72;78.26;102109.41;5970542;24;20420;-84
2021/08/27 07:15:04;;;;;;;5.03;1.45;;;;;;;16.76;77.32;102100.59;5915739;24;20532;-82
2021/08/27 07:18:21;;;;;;;5.35;1.73;;;;;;;16.74;78.22;102102.38;6014071;23;20016;-84
2021/08/27 07:21:13;;;;;;;8.80;1.45;;;;;;;16.86;76.55;102102.50;6045811;23;20060;-80
2021/08/27 07:31:25;;;;;;;3.22;1.00;;;;;;;17.04;75.45;102106.25;5922143;24;20054;-86
2021/08/27 07:33:51;;;;;;;5.20;1.33;;;;;;;17.09;73.68;102095.66;5963503;23;20095;-81
2021/08/27 07:37:12;;;;;;;;;;;;;;;;;;;;;
2021/08/27 07:40:12;;;;;;;8.55;1.30;;;;;;;17.17;71.92;102105.50;6087510;23;20084;-79
2021/08/27 07:42:38;;;;;;;5.45;1.27;;;;;;;17.14;71.38;102096.59;6152985;23;20005;-87
2021/08/27 07:45:32;;;;;;;8.05;1.45;;;;;;;17.25;72.16;102102.03;6152271;23;20064;-86
2021/08/27 07:48:03;;;;;;;5.10;1.60;;;;;;;17.30;72.56;102103.84;6064541;23;20003;-82
2021/08/27 07:51:19;;;;;;;7.28;1.70;;;;;;;17.37;70.39;102102.13;6146577;23;20014;-83
2021/08/27 07:54:08;;;;;;;9.02;1.40;;;;;;;17.50;70.61;102117.31;6155512;23;20017;-83
2021/08/27 08:00:12;;;;;;;7.35;1.63;;;;;;;17.58;69.28;102114.72;6142061;23;20025;-81
2021/08/27 08:02:46;;;;;;;7.57;1.80;;;;;;;17.68;68.97;102110.34;6149045;23;20013;-81
2021/08/27 08:05:40;;;;;;;7.40;1.80;;;;;;;17.86;68.77;102113.16;6151710;23;20089;-85
2021/08/27 08:08:23;;;;;;;3.67;1.42;;;;;;;18.10;67.77;102098.22;6152001;23;20004;-83
2021/08/27 08:10:51;;;;;;;7.80;2.00;;;;;;;18.31;66.75;102112.53;6150452;23;20019;-85
2021/08/27 08:13:24;;;;;;;5.45;1.40;;;;;;;18.59;65.17;102102.88;6151482;23;20388;-85
2021/08/27 08:16:16;;;;;;;9.55;1.88;;;;;;;18.90;64.30;102095.00;6153033;23;20005;-82
2021/08/27 08:19:14;;;;;;;;;;;;;;;;;;;;;
2021/08/27 08:21:45;;;;;;;9.07;2.10;;;;;;;19.05;62.16;102096.81;6146057;23;20382;-84
2021/08/27 08:24:14;;;;;;;7.07;1.60;;;;;;;18.81;61.02;102084.28;6151925;23;20088;-83
2021/08/27 08:26:39;;;;;;;7.72;2.50;;;;;;;18.78;61.29;102092.28;6151751;23;20080;-82
2021/08/27 08:29:08;;;;;;;8.57;2.17;;;;;;;18.78;63.24;102103.81;6151606;23;20024;-79
2021/08/27 08:31:34;;;;;;;10.10;1.90;;;;;;;18.54;62.38;102100.22;6150641;23;20005;-79
2021/08/27 08:34:00;;;;;;;8.90;2.88;;;;;;;18.47;64.12;102109.03;6148688;23;20166;-80
2021/08/27 08:36:26;;;;;;;9.70;2.28;;;;;;;18.26;63.41;102099.19;6121955;23;20017;-78
2021/08/27 08:38:52;;;;;;;6.28;2.42;;;;;;;18.53;63.50;102110.88;6150740;23;20337;-85
2021/08/27 08:41:37;;;;;;;6.82;2.10;;;;;;;18.85;61.33;102099.41;6148429;23;20025;-86
2021/08/27 08:44:06;;;;;;;6.85;2.03;;;;;;;19.13;62.05;102105.72;6145675;23;20020;-78
2021/08/27 08:46:41;;;;;;;;;;;;;;;;;;;;;
2021/08/27 08:49:09;;;;;;;12.82;2.53;;;;;;;19.06;61.87;102114.59;6131007;23;20072;-83
2021/08/27 08:51:35;;;;;;;4.88;2.00;;;;;;;19.27;62.56;102118.19;6121479;23;20013;-80
2021/08/27 08:54:01;;;;;;;9.85;2.70;;;;;;;19.19;61.77;102111.06;6126482;23;20010;-79
2021/08/27 08:56:53;;;;;;;8.10;2.67;;;;;;;19.09;60.54;102108.38;6150369;23;20005;-84
2021/08/27 08:59:42;;;;;;;8.18;2.25;;;;;;;18.71;61.45;102107.38;6154375;23;20009;-81
2021/08/27 09:02:09;;;;;;;6.80;2.47;;;;;;;18.64;61.64;102111.78;6147098;23;20326;-83
2021/08/27 09:04:34;;;;;;;7.68;2.03;;;;;;;18.42;62.35;102116.16;6153692;23;20467;-84
2021/08/27 09:07:03;;;;;;;11.23;2.42;;;;;;;18.32;63.91;102119.66;6128356;23;20022;-81
2021/08/27 09:09:36;;;;;;;10.65;2.28;;;;;;;18.34;63.19;102124.09;6154375;23;20001;-80
2021/08/27 09:12:21;;;;;;;8.95;3.03;;;;;;;18.49;63.26;102123.28;6155165;23;20013;-83
2021/08/27 09:15:26;;;;;;;16.30;2.42;;;;;;;18.57;64.70;102126.00;6154869;23;20068;-78
2021/08/27 09:18:06;;;;;;;5.85;1.80;;;;;;;18.83;63.60;102123.41;6154909;23;20425;-82
2021/08/27 09:20:31;;;;;;;6.43;2.38;;;;;;;19.01;63.40;102113.69;6152832;23;20014;-80
2021/08/27 09:23:03;;;;;;;8.93;2.40;;;;;;;19.25;63.09;102114.59;6152244;23;20067;-82
2021/08/27 09:25:49;;;;;;;14.05;2.30;;;;;;;19.39;60.66;102118.19;6157328;23;20009;-82
2021/08/27 09:28:22;;;;;;;5.93;1.83;;;;;;;19.73;56.95;102104.81;6154700;23;20090;-80
2021/08/27 09:30:51;;;;;;;;;;;;;;;20.14;56.03;102098.50;6154029;23;20006;-79
2021/08/27 09:33:24;;;;;;;6.03;1.70;;;;;;;20.64;53.22;102083.13;6153544;23;19914;-77
2021/08/27 09:36:07;;;;;;;6.65;2.05;;;;;;;21.15;54.89;102101.59;6154361;23;20085;-81
2021/08/27 09:38:56;;;;;;;11.10;2.33;;;;;;;21.08;55.68;102091.84;6155284;23;20421;-78
2021/08/27 09:41:23;;;;;;;7.47;2.20;;;;;;;20.50;55.49;102096.59;6153594;23;20009;-80
2021/08/27 09:43:58;;;;;;;9.10;1.98;;;;;;;20.85;54.44;102086.66;6153201;23;20425;-80
2021/08/27 09:47:00;;;;;;;6.85;2.58;;;;;;;21.14;54.49;102089.09;6152629;23;20487;-79
2021/08/27 09:49:37;;;;;;;9.80;2.45;;;;;;;21.67;53.79;102080.66;6148799;23;20009;-84
2021/08/27 09:52:08;;;;;;;5.35;2.03;;;;;;;22.43;49.95;102075.31;6151917;23;20587;-81
2021/08/27 09:54:37;;;;;;;7.90;1.80;;;;;;;22.52;49.21;102074.34;6155739;23;20014;-82
2021/08/27 09:57:06;;;;;;;7.22;1.80;;;;;;;23.51;50.26;102084.44;6147575;23;20010;-81
2021/08/27 09:59:55;;;;;;;6.28;1.77;;;;;;;24.21;45.40;102086.72;6149036;23;20006;-82
2021/08/27 10:02:32;;;;;;;4.05;1.70;;;;;;;24.90;44.27;102072.66;6145733;23;20013;-78
2021/08/27 10:04:59;;;;;;;6.50;1.73;;;;;;;24.53;41.87;102068.97;6148539;23;20005;-78
2021/08/27 10:07:26;;;;;;;6.70;1.83;;;;;;;24.95;41.34;102061.78;6123516;23;20017;-77
2021/08/27 10:09:52;;;;;;;5.72;1.83;;;;;;;25.03;41.34;102066.06;6151193;23;20060;-80
2021/08/27 10:12:18;;;;;;;6.60;2.03;;;;;;;24.28;41.26;102054.28;6150102;23;20010;-78
2021/08/27 10:14:44;;;;;;;6.22;1.77;;;;;;;24.30;44.63;102079.38;6149133;23;20465;-76
2021/08/27 10:17:29;;;;;;;10.07;2.05;;;;;;;24.63;42.52;102067.00;6150002;23;20310;-79
2021/08/27 10:19:55;;;;;;;6.40;2.03;;;;;;;24.85;42.28;102059.31;6153007;23;20009;-79
2021/08/27 10:22:41;;;;;;;9.00;2.45;;;;;;;25.55;42.44;102061.16;6152655;23;20093;-76
2021/08/27 10:25:10;;;;;;;8.15;2.15;;;;;;;25.79;41.34;102057.81;6151103;23;20010;-77
2021/08/27 10:27:38;;;;;;;7.40;1.98;;;;;;;25.76;40.91;102056.13;6153456;23;20009;-81
2021/08/27 10:30:06;;;;;;;5.03;1.75;;;;;;;25.47;42.93;102057.78;6152904;23;20023;-76
2021/08/27 10:32:41;;;;;;;6.55;2.03;;;;;;;25.49;41.67;102058.66;6152254;23;20496;-77
2021/08/27 10:35:16;;;;;;;5.70;1.50;;;;;;;25.98;40.41;102056.38;6154419;23;20009;-78
2021/08/27 10:37:43;;;;;;;5.68;2.08;;;;;;;25.72;40.84;102059.81;6153266;23;20017;-79
2021/08/27 10:40:27;;;;;;;5.63;2.00;;;;;;;25.67;40.03;102057.25;6152870;23;20081;-79
2021/08/27 10:43:00;;;;;;;5.78;1.70;;;;;;;26.05;40.36;102062.53;6154280;23;20025;-78
2021/08/27 10:45:41;;;;;;;6.28;1.67;;;;;;;25.99;37.44;102041.06;6153388;23;20020;-77
2021/08/27 10:48:49;;;;;;;3.47;1.45;;;;;;;25.81;37.27;102039.81;6152968;23;20020;-79
2021/08/27 10:51:36;;;;;;;4.88;1.70;;;;;;;26.21;38.32;102044.94;6141945;23;20021;-79
2021/08/27 10:54:03;;;;;;;4.13;1.65;;;;;;;26.33;39.12;102038.31;6152751;23;20065;-77
2021/08/27 10:56:50;;;;;;;6.90;2.22;;;;;;;26.23;37.81;102034.97;6151223;23;20089;-78
2021/08/27 10:59:20;;;;;;;7.78;2.40;;;;;;;26.49;37.26;102033.28;6151053;23;20732;-79
2021/08/27 11:02:09;;;;;;;6.60;1.85;;;;;;;26.01;39.91;102044.63;6148817;23;20388;-83
2021/08/27 11:04:37;;;;;;;5.95;1.85;;;;;;;26.49;40.70;102051.31;6154619;23;20009;-84
2021/08/27 11:07:18;;;;;;;6.85;2.40;;;;;;;25.54;38.57;102042.34;6152905;23;20017;-82
2021/08/27 11:10:15;;;;;;;9.07;2.15;;;;;;;25.70;39.59;102045.50;6144751;23;20531;-84
2021/08/27 11:12:57;;;;;;;9.30;1.55;;;;;;;26.05;37.88;102044.50;6124211;23;20042;-81
2021/08/27 11:15:23;;;;;;;7.30;1.88;;;;;;;25.85;39.84;102058.53;6153319;23;20005;-83
2021/08/27 11:18:07;;;;;;;9.00;2.55;;;;;;;25.05;41.43;102052.53;6151560;23;20077;-85
2021/08/27 11:20:52;;;;;;;6.90;1.73;;;;;;;24.74;43.56;102047.91;6155105;23;20009;-84
2021/08/27 11:24:11;;;;;;;7.78;2.05;;;;;;;25.54;40.55;102056.72;6155816;23;20067;-83
2021/08/27 11:27:19;;;;;;;5.18;1.42;;;;;;;25.78;39.94;102051.56;6154746;23;20060;-83
2021/08/27 11:29:45;;;;;;;5.90;1.73;;;;;;;26.05;39.45;102051.75;6154769;23;20028;-82
2021/08/27 11:32:16;;;;;;;7.88;2.13;;;;;;;26.30;41.73;102059.09;6156705;23;20058;-86
2021/08/27 11:34:52;;;;;;;6.90;2.08;;;;;;;26.45;38.51;102039.72;6155435;23;20033;-79
2021/08/27 11:37:24;;;;;;;12.30;2.28;;;;;;;26.36;40.89;102048.13;6154675;23;20017;-82
2021/08/27 11:40:10;;;;;;;9.20;1.90;;;;;;;26.22;42.27;102057.53;6155262;23;20013;-82
2021/08/27 11:42:39;;;;;;;11.02;1.92;;;;;;;26.21;40.23;102035.97;6157222;23;20027;-82
2021/08/27 11:45:33;;;;;;;8.68;1.98;;;;;;;26.32;38.19;102035.66;6154071;23;20009;-80
2021/08/27 11:48:19;;;;;;;10.10;2.08;;;;;;;26.13;41.18;102055.09;6153037;23;20010;-88
2021/08/27 11:50:59;;;;;;;8.25;2.20;;;;;;;26.65;39.42;102059.81;6155640;23;20028;-86
2021/08/27 11:53:28;;;;;;;7.55;1.83;;;;;;;26.34;39.09;102047.28;6154144;23;20025;-84
2021/08/27 11:55:53;;;;;;;7.22;1.95;;;;;;;26.92;38.11;102050.84;6153459;23;20337;-82
2021/08/27 11:58:20;;;;;;;9.32;2.20;;;;;;;26.46;40.10;102055.00;6153645;23;20001;-81
2021/08/27 12:00:48;;;;;;;6.95;2.35;;;;;;;25.31;42.21;102049.19;6150442;23;20017;-82
2021/08/27 12:03:33;;;;;;;9.00;2.10;;;;;;;25.27;41.92;102057.41;6154142;23;20013;-82
2021/08/27 12:05:58;;;;;;;13.52;2.20;;;;;;;24.80;43.22;102057.63;6153912;23;20009;-80
2021/08/27 12:08:45;;;;;;;7.65;2.08;;;;;;;24.36;44.23;102071.16;6154030;23;20031;-82
2021/08/27 12:11:11;;;;;;;6.95;1.90;;;;;;;24.14;45.83;102068.91;6155495;23;20017;-81
2021/08/27 12:13:57;;;;;;;9.10;2.35;;;;;;;23.56;45.97;102066.44;6155171;23;20008;-81
2021/08/27 12:16:31;;;;;;;7.45;2.47;;;;;;;23.42;48.13;102073.84;6152877;23;20017;-79
2021/08/27 12:18:56;;;;;;;7.25;1.98;;;;;;;23.48;47.94;102078.22;6154254;23;20061;-82
2021/08/27 12:21:42;;;;;;;16.88;2.00;;;;;;;23.03;49.80;102070.88;6154509;23;20002;-83
2021/08/27 12:24:09;;;;;;;7.50;1.85;;;;;;;22.75;49.71;102076.69;6152900;23;20433;-82
2021/08/27 12:26:55;;;;;;;11.95;2.20;;;;;;;22.51;50.36;102081.47;6155404;23;20057;-81
2021/08/27 12:29:20;;;;;;;8.80;2.40;;;;;;;21.72;52.43;102087.72;6154365;23;20006;-79
2021/08/27 12:31:47;;;;;;;8.57;2.08;;;;;;;21.16;54.94;102079.28;6153982;23;20012;-79
2021/08/27 12:34:33;;;;;;;11.75;2.33;;;;;;;20.74;56.57;102086.72;6153847;23;20085;-81
2021/08/27 12:36:58;;;;;;;15.25;2.53;;;;;;;20.32;57.47;102091.31;6153398;23;20030;-81
2021/08/27 12:39:24;;;;;;;7.95;2.10;;;;;;;19.95;59.62;102091.44;6153471;23;20081;-77
2021/08/27 12:41:49;;;;;;;17.05;2.17;;;;;;;19.83;59.71;102103.94;6152693;23;20401;-80
2021/08/27 12:44:16;;;;;;;9.88;2.67;;;;;;;19.84;59.45;102102.16;6152712;23;20005;-80
2021/08/27 12:46:49;;;;;;;8.10;2.28;;;;;;;19.73;60.66;102102.13;6154900;23;20025;-82
2021/08/27 12:49:56;;;;;;;10.07;2.97;;;;;;;19.85;61.80;102102.16;6153328;23;20458;-83
2021/08/27 12:52:22;;;;;;;12.30;2.20;;;;;;;20.05;59.54;102101.22;6153972;23;20013;-81
2021/08/27 12:54:47;;;;;;;9.77;1.98;;;;;;;20.18;60.51;102100.31;6154241;23;20006;-82
2021/08/27 12:57:15;;;;;;;7.80;2.05;;;;;;;20.32;58.25;102089.56;6152741;23;20001;-81
2021/08/27 13:00:09;;;;;;;11.85;1.90;;;;;;;20.67;57.91;102092.94;6153499;23;20012;-81
2021/08/27 13:02:37;;;;;;;;;;;;;;;21.01;57.90;102098.09;6155802;23;20032;-79
2021/08/27 13:05:08;;;;;;;9.50;2.03;;;;;;;20.65;61.13;102105.44;6153946;23;20339;-80
2021/08/27 13:07:34;;;;;;;8.45;1.60;;;;;;;19.78;62.87;102108.38;6153981;23;20017;-80
2021/08/27 13:10:26;;;;;;;5.60;1.35;;;;;;;18.84;67.91;102125.19;6154719;23;20076;-83
2021/08/27 13:12:51;;;;;;;7.53;1.50;;;;;;;18.29;71.98;102157.84;6154713;23;20488;-82
2021/08/27 13:15:28;;;;;;;10.15;2.47;;;;;;;17.79;75.70;102143.25;6154567;23;20005;-81
2021/08/27 13:18:05;;;;;;;10.95;2.10;;;;;;;17.58;77.05;102146.66;6155215;23;20009;-77
2021/08/27 13:20:34;;;;;;;11.63;2.22;;;;;;;17.58;77.92;102145.75;6155429;23;20361;-80
2021/08/27 13:23:22;;;;;;;8.43;2.00;;;;;;;17.52;76.70;102136.84;6154383;23;20093;-82
2021/08/27 13:25:50;;;;;;;10.90;2.20;;;;;;;17.66;77.00;102144.03;6153873;23;20001;-79
2021/08/27 13:28:16;;;;;;;9.93;2.25;;;;;;;17.85;75.42;102132.66;6155090;23;20010;-82
2021/08/27 13:30:43;;;;;;;15.25;2.40;;;;;;;18.02;74.83;102131.91;6151863;23;20306;-83
2021/08/27 13:33:09;;;;;;;8.98;2.03;;;;;;;18.07;73.24;102122.19;6155260;23;20331;-78
2021/08/27 13:35:34;;;;;;;14.65;3.10;;;;;;;18.25;72.94;102117.84;6154757;23;20078;-81
2021/08/27 13:38:00;;;;;;;14.10;2.42;;;;;;;18.43;70.23;102106.38;6152961;23;20048;-86
2021/08/27 13:40:28;;;;;;;10.35;1.42;;;;;;;19.84;63.85;102078.13;6155465;23;20006;-85
2021/08/27 13:42:53;;;;;;;7.38;1.58;;;;;;;20.57;64.61;102088.56;6153586;23;20448;-82
2021/08/27 13:45:38;;;;;;;7.40;1.52;;;;;;;20.93;61.33;102089.25;6153636;23;20010;-84
2021/08/27 13:48:04;;;;;;;6.57;2.17;;;;;;;20.48;61.42;102090.38;6153226;23;20014;-82
2021/08/27 13:50:31;;;;;;;6.93;1.77;;;;;;;20.27;62.53;102088.69;6153849;23;20433;-82
2021/08/27 13:52:59;;;;;;;9.27;1.98;;;;;;;20.59;63.78;102094.78;6155403;23;20080;-89
2021/08/27 13:55:25;;;;;;;3.95;1.70;;;;;;;20.15;63.25;102078.03;6157320;23;20055;-79
2021/08/27 13:57:50;;;;;;;7.85;1.40;;;;;;;20.97;60.72;102082.97;6157614;23;20501;-80
2021/08/27 14:00:18;;;;;;;7.75;1.77;;;;;;;21.88;58.63;102083.09;6153547;23;20010;-78
2021/08/27 14:02:45;;;;;;;8.68;1.90;;;;;;;22.18;55.49;102080.97;6156814;23;20020;-83
2021/08/27 14:05:19;;;;;;;7.07;1.90;;;;;;;22.08;53.65;102065.91;6159003;23;20025;-80
2021/08/27 14:07:49;;;;;;;9.75;2.30;;;;;;;21.42;56.50;102062.09;6132515;23;20013;-82
2021/08/27 14:10:15;;;;;;;6.38;1.80;;;;;;;21.76;53.42;102047.50;6157460;23;20010;-82
2021/08/27 14:12:41;;;;;;;8.60;1.98;;;;;;;22.43;54.02;102058.34;6157621;23;20009;-78
2021/08/27 14:15:27;;;;;;;9.82;1.70;;;;;;;23.73;49.18;102049.97;6155890;23;20017;-78
2021/08/27 14:17:53;;;;;;;6.03;1.55;;;;;;;24.68;49.01;102057.00;6156376;23;20009;-80
2021/08/27 14:20:20;;;;;;;17.45;1.73;;;;;;;24.41;46.62;102047.72;6173393;23;20043;-81
2021/08/27 14:22:46;;;;;;;4.38;1.50;;;;;;;24.22;47.33;102049.94;6186333;23;20013;-81
2021/08/27 14:25:31;;;;;;;8.05;1.75;;;;;;;22.96;50.10;102059.34;6186295;23;20016;-76
2021/08/27 14:27:57;;;;;;;11.35;2.80;;;;;;;22.15;54.91;102075.66;6185486;23;20405;-82
2021/08/27 14:30:43;;;;;;;8.90;2.33;;;;;;;20.96;58.06;102081.19;6185950;23;20020;-82
2021/08/27 14:33:08;;;;;;;9.02;2.40;;;;;;;20.81;58.56;102085.75;6186940;23;20052;-81
2021/08/27 14:35:34;;;;;;;11.43;1.92;;;;;;;20.66;59.43;102078.69;6161357;23;20016;-80
2021/08/27 14:38:00;;;;;;;14.88;2.30;;;;;;;20.84;59.37;102085.75;6185904;23;20021;-82
2021/08/27 14:40:45;;;;;;;9.43;2.53;;;;;;;20.65;60.52;102079.56;6186480;23;20404;-83
2021/08/27 14:43:10;;;;;;;10.52;2.30;;;;;;;20.25;60.20;102086.91;6184691;23;20016;-82
2021/08/27 14:45:36;;;;;;;13.60;3.35;;;;;;;20.16;61.49;102086.03;6186298;23;20005;-79
2021/08/27 14:48:04;;;;;;;15.52;2.15;;;;;;;19.92;61.95;102080.78;6184893;23;19997;-81
2021/08/27 14:50:29;;;;;;;8.20;2.22;;;;;;;20.11;61.52;102082.50;6185277;23;20124;-81
2021/08/27 14:52:55;;;;;;;10.75;2.63;;;;;;;19.99;60.10;102074.53;6185681;23;20033;-78
2021/08/27 14:55:20;;;;;;;13.23;2.67;;;;;;;19.76;59.77;102080.75;6185755;23;20013;-85
2021/08/27 14:57:47;;;;;;;10.95;2.45;;;;;;;19.57;61.21;102079.91;6182708;23;20005;-81
2021/08/27 15:00:13;;;;;;;10.05;2.45;;;;;;;19.55;59.53;102068.34;6181461;23;20413;-80
2021/08/27 15:02:38;;;;;;;9.18;2.60;;;;;;;19.68;60.62;102078.13;6185789;23;20001;-78
2021/08/27 15:05:24;;;;;;;13.20;2.45;;;;;;;19.57;63.13;102081.69;6184958;23;20020;-80
2021/08/27 15:07:49;;;;;;;5.68;1.55;;;;;;;19.58;58.21;102075.47;6185079;23;19997;-85
2021/08/27 15:10:15;;;;;;;9.70;2.53;;;;;;;19.55;57.18;102066.56;6185229;23;20012;-79
2021/08/27 15:12:40;;;;;;;6.65;1.60;;;;;;;19.69;56.74;102057.63;6183521;23;20085;-82
2021/08/27 15:15:06;;;;;;;5.68;2.30;;;;;;;19.75;57.41;102070.09;6183935;23;20007;-81
2021/08/27 15:17:31;;;;;;;3.72;1.52;;;;;;;19.85;58.02;102071.88;6185534;23;20008;-76
2021/08/27 15:19:56;;;;;;;8.05;2.42;;;;;;;19.84;59.62;102070.97;6185275;23;20060;-82
2021/08/27 15:22:25;;;;;;;7.60;2.03;;;;;;;19.99;59.74;102071.84;6183636;23;20017;-81
2021/08/27 15:24:51;;;;;;;16.55;2.78;;;;;;;20.10;59.44;102074.47;6157662;23;20455;-81
2021/08/27 15:27:16;;;;;;;9.30;2.38;;;;;;;20.01;60.19;102075.41;6185961;23;20005;-83
2021/08/27 15:29:42;;;;;;;10.18;2.22;;;;;;;20.00;59.91;102078.97;6183734;23;20048;-81
2021/08/27 15:32:08;;;;;;;10.85;3.17;;;;;;;19.81;59.54;102067.44;6183662;23;20008;-83
2021/08/27 15:34:33;;;;;;;9.55;2.22;;;;;;;19.86;59.47;102066.53;6183335;23;20005;-83
2021/08/27 15:36:59;;;;;;;8.68;2.38;;;;;;;19.45;58.70;102074.56;6185929;23;20017;-78
2021/08/27 15:39:24;;;;;;;11.23;2.05;;;;;;;19.07;59.96;102071.00;6186650;23;20487;-77
2021/08/27 15:41:50;;;;;;;12.93;2.03;;;;;;;19.09;59.92;102082.59;6185977;23;20009;-82
2021/08/27 15:44:15;;;;;;;9.52;2.20;;;;;;;19.11;61.50;102078.13;6186526;23;20336;-79
2021/08/27 15:46:41;;;;;;;14.82;2.60;;;;;;;19.38;61.29;102079.94;6158238;23;20402;-79
2021/08/27 15:49:06;;;;;;;10.55;2.70;;;;;;;19.47;60.90;102081.69;6179527;23;20421;-81
2021/08/27 15:51:32;;;;;;;6.82;2.03;;;;;;;19.50;61.46;102087.03;6179747;23;20336;-83
2021/08/27 15:54:40;;;;;;;9.20;2.13;;;;;;;19.31;60.13;102091.47;6182447;23;20076;-84
2021/08/27 15:57:05;;;;;;;11.98;3.00;;;;;;;19.26;60.34;102071.94;6183911;23;20062;-82
2021/08/27 15:59:31;;;;;;;13.30;2.50;;;;;;;19.16;62.00;102091.47;6185096;23;20057;-77
2021/08/27 16:01:56;;;;;;;11.98;2.92;;;;;;;18.98;60.65;102084.34;6180754;23;20558;-85
2021/08/27 16:04:22;;;;;;;6.65;2.30;;;;;;;18.73;62.73;102089.59;6159392;23;20013;-80
2021/08/27 16:06:48;;;;;;;12.90;2.58;;;;;;;18.94;64.01;102098.56;6158643;23;20306;-83
2021/08/27 16:09:13;;;;;;;13.35;2.85;;;;;;;18.93;63.33;102092.34;6184951;23;20044;-80
2021/08/27 16:11:39;;;;;;;9.38;2.58;;;;;;;19.07;64.37;102092.34;6182931;23;20499;-81
2021/08/27 16:14:05;;;;;;;12.52;2.60;;;;;;;19.10;63.87;102094.13;6184744;23;20432;-80
2021/08/27 16:16:35;;;;;;;14.93;2.28;;;;;;;19.02;64.39;102096.81;6185843;23;20007;-79
2021/08/27 16:19:03;;;;;;;9.15;2.30;;;;;;;18.71;64.59;102102.03;6169905;23;20024;-80
2021/08/27 16:21:49;;;;;;;8.30;2.05;;;;;;;18.44;62.37;102093.06;6191124;23;20131;-82
2021/08/27 16:24:16;;;;;;;5.68;1.83;;;;;;;18.42;63.47;102099.25;6184628;23;20087;-85
2021/08/27 16:26:42;;;;;;;9.30;1.40;;;;;;;18.33;62.99;102105.47;6183756;23;20020;-86
2021/08/27 16:29:10;;;;;;;8.95;1.77;;;;;;;18.10;63.45;102100.00;6183143;23;20005;-80
2021/08/27 16:31:36;;;;;;;6.30;1.60;;;;;;;18.08;63.98;102093.78;6157772;23;20436;-84
2021/08/27 16:34:02;;;;;;;10.98;1.88;;;;;;;18.05;65.32;102099.09;6183971;23;20016;-81
2021/08/27 16:36:28;;;;;;;11.50;2.97;;;;;;;18.10;66.23;102092.91;6157011;23;20017;-78
2021/08/27 16:38:54;;;;;;;14.52;2.30;;;;;;;18.07;67.00;102110.63;6184695;23;20032;-78
2021/08/27 16:41:35;;;;;;;8.88;2.20;;;;;;;18.12;67.61;102117.78;6183445;23;20452;-79
2021/08/27 16:44:01;;;;;;;10.70;2.03;;;;;;;18.04;67.21;102114.16;6183730;23;20012;-78
2021/08/27 16:46:29;;;;;;;15.65;2.70;;;;;;;17.99;67.40;102122.13;6183462;23;20005;-80
2021/08/27 16:48:55;;;;;;;5.28;2.00;;;;;;;17.83;67.66;102115.78;6186179;23;20329;-84
2021/08/27 16:51:20;;;;;;;7.85;2.55;;;;;;;17.81;67.88;102116.66;6182848;23;20019;-77
2021/08/27 16:53:46;;;;;;;11.93;2.53;;;;;;;17.66;69.09;102122.75;6184209;23;20428;-82
2021/08/27 16:56:11;;;;;;;10.45;2.55;;;;;;;17.67;69.55;102116.56;6184603;23;20001;-85
2021/08/27 16:58:47;;;;;;;12.27;2.25;;;;;;;17.54;69.18;102104.94;6185468;23;20011;-82
2021/08/27 17:01:14;;;;;;;15.73;3.17;;;;;;;17.64;69.71;102119.19;6176806;23;20046;-82
2021/08/27 17:03:39;;;;;;;9.48;2.10;;;;;;;17.76;69.20;102116.63;6185259;23;20129;-79
2021/08/27 17:06:04;;;;;;;8.82;1.90;;;;;;;17.87;68.67;102122.03;6182580;23;20389;-76
2021/08/27 17:08:32;;;;;;;8.90;2.20;;;;;;;17.92;67.78;102116.75;6185465;23;20001;-78
2021/08/27 17:10:57;;;;;;;10.23;2.38;;;;;;;17.98;68.56;102116.81;6183144;23;20013;-78
2021/08/27 17:13:23;;;;;;;10.07;2.90;;;;;;;17.93;68.02;102121.19;6184331;23;20013;-83
2021/08/27 17:15:48;;;;;;;8.55;2.30;;;;;;;17.96;67.20;102116.81;6185234;23;20005;-80
2021/08/27 17:18:15;;;;;;;12.10;2.80;;;;;;;17.87;66.99;102100.72;6184579;23;20067;-81
2021/08/27 17:20:41;;;;;;;6.57;1.85;;;;;;;17.79;67.69;102103.31;6185289;23;20012;-80
2021/08/27 17:23:07;;;;;;;7.15;1.95;;;;;;;17.75;67.69;102098.88;6183608;23;20004;-79
2021/08/27 17:25:32;;;;;;;12.38;2.03;;;;;;;17.49;69.08;102102.22;6182345;23;20001;-81
2021/08/27 17:27:58;;;;;;;12.80;2.38;;;;;;;17.54;69.28;102107.59;6156076;23;20109;-78
2021/08/27 17:30:23;;;;;;;15.30;3.45;;;;;;;17.46;69.50;102107.53;6182262;23;20055;-81
2021/08/27 17:32:49;;;;;;;12.88;2.60;;;;;;;17.48;70.34;102112.84;6181140;23;20001;-80
2021/08/27 17:35:14;;;;;;;6.45;2.08;;;;;;;17.56;70.09;102118.25;6167192;23;20092;-79